sensor_id;sensor_type;location;lat;lon;timestamp;P1;durP1;ratioP1;P2;durP2;ratioP2
39524;SDS011;25203;50.754;6.978;2024-01-15T00:00:46;25.08;;;11.35;;
39524;SDS011;25203;50.754;6.978;2024-01-15T00:02:47;28.15;;;11.88;;
39524;SDS011;25203;50.754;6.978;2024-01-15T00:04:47;22.13;;;11.38;;
39524;SDS011;25203;50.754;6.978;2024-01-15T00:06:49;24.40;;;11.85;;
39524;SDS011;25203;50.754;6.978;2024-01-15T00:08:50;28.13;;;12.30;;
39524;SDS011;25203;50.754;6.978;2024-01-15T00:10:50;31.73;;;12.80;;
39524;SDS011;25203;50.754;6.978;2024-01-15T00:12:51;24.58;;;11.57;;
39524;SDS011;25203;50.754;6.978;2024-01-15T00:14:51;28.10;;;11.88;;
39524;SDS011;25203;50.754;6.978;2024-01-15T00:16:52;25.15;;;11.35;;
39524;SDS011;25203;50.754;6.978;2024-01-15T00:18:54;27.55;;;11.73;;
39524;SDS011;25203;50.754;6.978;2024-01-15T00:20:55;31.50;;;11.73;;
39524;SDS011;25203;50.754;6.978;2024-01-15T00:22:56;27.92;;;13.43;;
39524;SDS011;25203;50.754;6.978;2024-01-15T00:24:56;26.50;;;12.95;;
39524;SDS011;25203;50.754;6.978;2024-01-15T00:26:57;29.27;;;13.27;;
39524;SDS011;25203;50.754;6.978;2024-01-15T00:28:58;26.67;;;13.80;;
39524;SDS011;25203;50.754;6.978;2024-01-15T00:30:58;31.83;;;13.73;;
39524;SDS011;25203;50.754;6.978;2024-01-15T00:32:59;36.08;;;15.68;;
39524;SDS011;25203;50.754;6.978;2024-01-15T00:34:59;34.25;;;13.98;;
39524;SDS011;25203;50.754;6.978;2024-01-15T00:37:00;35.45;;;14.48;;
39524;SDS011;25203;50.754;6.978;2024-01-15T00:39:01;31.83;;;14.88;;
39524;SDS011;25203;50.754;6.978;2024-01-15T00:41:01;29.77;;;13.57;;
39524;SDS011;25203;50.754;6.978;2024-01-15T00:43:03;35.03;;;14.80;;
39524;SDS011;25203;50.754;6.978;2024-01-15T00:45:03;36.80;;;14.75;;
39524;SDS011;25203;50.754;6.978;2024-01-15T00:47:05;35.15;;;14.32;;
39524;SDS011;25203;50.754;6.978;2024-01-15T00:49:06;36.88;;;15.50;;
39524;SDS011;25203;50.754;6.978;2024-01-15T00:51:06;30.88;;;14.80;;
39524;SDS011;25203;50.754;6.978;2024-01-15T00:53:07;38.30;;;14.77;;
39524;SDS011;25203;50.754;6.978;2024-01-15T00:55:08;27.58;;;14.43;;
39524;SDS011;25203;50.754;6.978;2024-01-15T00:57:08;36.45;;;14.80;;
39524;SDS011;25203;50.754;6.978;2024-01-15T00:59:09;33.92;;;16.27;;
39524;SDS011;25203;50.754;6.978;2024-01-15T01:01:10;34.10;;;14.93;;
39524;SDS011;25203;50.754;6.978;2024-01-15T01:03:11;38.20;;;14.43;;
39524;SDS011;25203;50.754;6.978;2024-01-15T01:05:11;34.28;;;14.80;;
39524;SDS011;25203;50.754;6.978;2024-01-15T01:07:12;36.03;;;16.10;;
39524;SDS011;25203;50.754;6.978;2024-01-15T01:09:12;33.00;;;14.05;;
39524;SDS011;25203;50.754;6.978;2024-01-15T01:11:14;38.08;;;15.23;;
39524;SDS011;25203;50.754;6.978;2024-01-15T01:13:15;27.92;;;13.93;;
39524;SDS011;25203;50.754;6.978;2024-01-15T01:15:16;27.92;;;13.25;;
39524;SDS011;25203;50.754;6.978;2024-01-15T01:17:16;32.50;;;12.65;;
39524;SDS011;25203;50.754;6.978;2024-01-15T01:19:17;24.55;;;12.93;;
39524;SDS011;25203;50.754;6.978;2024-01-15T01:21:18;28.02;;;14.27;;
39524;SDS011;25203;50.754;6.978;2024-01-15T01:23:18;36.83;;;15.63;;
39524;SDS011;25203;50.754;6.978;2024-01-15T01:25:19;32.65;;;14.80;;
39524;SDS011;25203;50.754;6.978;2024-01-15T01:27:19;28.42;;;13.10;;
39524;SDS011;25203;50.754;6.978;2024-01-15T01:29:20;32.97;;;15.27;;
39524;SDS011;25203;50.754;6.978;2024-01-15T01:31:21;34.97;;;14.98;;
39524;SDS011;25203;50.754;6.978;2024-01-15T01:33:21;28.50;;;14.15;;
39524;SDS011;25203;50.754;6.978;2024-01-15T01:35:22;32.38;;;15.25;;
39524;SDS011;25203;50.754;6.978;2024-01-15T01:37:23;31.55;;;14.40;;
39524;SDS011;25203;50.754;6.978;2024-01-15T01:39:23;39.20;;;16.50;;
39524;SDS011;25203;50.754;6.978;2024-01-15T01:41:24;33.83;;;15.02;;
39524;SDS011;25203;50.754;6.978;2024-01-15T01:43:24;39.97;;;15.93;;
39524;SDS011;25203;50.754;6.978;2024-01-15T01:45:25;33.75;;;15.43;;
39524;SDS011;25203;50.754;6.978;2024-01-15T01:47:26;40.10;;;16.35;;
39524;SDS011;25203;50.754;6.978;2024-01-15T01:49:26;34.40;;;15.38;;
39524;SDS011;25203;50.754;6.978;2024-01-15T01:51:28;33.63;;;15.35;;
39524;SDS011;25203;50.754;6.978;2024-01-15T01:53:28;34.78;;;15.52;;
39524;SDS011;25203;50.754;6.978;2024-01-15T01:55:31;31.30;;;14.90;;
39524;SDS011;25203;50.754;6.978;2024-01-15T01:57:33;34.72;;;15.32;;
39524;SDS011;25203;50.754;6.978;2024-01-15T01:59:35;44.88;;;16.02;;
39524;SDS011;25203;50.754;6.978;2024-01-15T02:01:36;36.15;;;15.48;;
39524;SDS011;25203;50.754;6.978;2024-01-15T02:03:37;32.33;;;15.48;;
39524;SDS011;25203;50.754;6.978;2024-01-15T02:05:39;43.60;;;16.38;;
39524;SDS011;25203;50.754;6.978;2024-01-15T02:07:40;33.45;;;15.70;;
39524;SDS011;25203;50.754;6.978;2024-01-15T02:09:41;35.72;;;15.65;;
39524;SDS011;25203;50.754;6.978;2024-01-15T02:11:42;36.08;;;16.30;;
39524;SDS011;25203;50.754;6.978;2024-01-15T02:13:43;31.23;;;15.63;;
39524;SDS011;25203;50.754;6.978;2024-01-15T02:15:43;34.67;;;15.73;;
39524;SDS011;25203;50.754;6.978;2024-01-15T02:17:57;36.03;;;16.08;;
39524;SDS011;25203;50.754;6.978;2024-01-15T02:19:58;35.63;;;15.18;;
39524;SDS011;25203;50.754;6.978;2024-01-15T02:21:59;34.90;;;15.93;;
39524;SDS011;25203;50.754;6.978;2024-01-15T02:23:59;37.35;;;15.63;;
39524;SDS011;25203;50.754;6.978;2024-01-15T02:26:00;40.83;;;16.30;;
39524;SDS011;25203;50.754;6.978;2024-01-15T02:28:01;38.58;;;16.38;;
39524;SDS011;25203;50.754;6.978;2024-01-15T02:30:03;45.65;;;18.13;;
39524;SDS011;25203;50.754;6.978;2024-01-15T02:32:06;35.22;;;17.15;;
39524;SDS011;25203;50.754;6.978;2024-01-15T02:34:08;39.70;;;17.02;;
39524;SDS011;25203;50.754;6.978;2024-01-15T02:36:09;40.25;;;16.83;;
39524;SDS011;25203;50.754;6.978;2024-01-15T02:38:10;33.55;;;16.77;;
39524;SDS011;25203;50.754;6.978;2024-01-15T02:40:11;35.28;;;15.40;;
39524;SDS011;25203;50.754;6.978;2024-01-15T02:42:11;33.72;;;16.40;;
39524;SDS011;25203;50.754;6.978;2024-01-15T02:44:12;37.13;;;16.58;;
39524;SDS011;25203;50.754;6.978;2024-01-15T02:46:12;37.47;;;16.65;;
39524;SDS011;25203;50.754;6.978;2024-01-15T02:48:13;36.47;;;16.30;;
39524;SDS011;25203;50.754;6.978;2024-01-15T02:50:14;35.17;;;15.88;;
39524;SDS011;25203;50.754;6.978;2024-01-15T02:52:15;39.55;;;18.20;;
39524;SDS011;25203;50.754;6.978;2024-01-15T02:54:15;31.90;;;16.67;;
39524;SDS011;25203;50.754;6.978;2024-01-15T02:56:16;37.03;;;16.73;;
39524;SDS011;25203;50.754;6.978;2024-01-15T02:58:16;38.05;;;17.02;;
39524;SDS011;25203;50.754;6.978;2024-01-15T03:00:17;39.03;;;17.80;;
39524;SDS011;25203;50.754;6.978;2024-01-15T03:02:18;35.78;;;16.30;;
39524;SDS011;25203;50.754;6.978;2024-01-15T03:04:18;35.22;;;15.27;;
39524;SDS011;25203;50.754;6.978;2024-01-15T03:06:19;34.10;;;16.67;;
39524;SDS011;25203;50.754;6.978;2024-01-15T03:08:19;31.90;;;16.02;;
39524;SDS011;25203;50.754;6.978;2024-01-15T03:10:20;28.67;;;14.40;;
39524;SDS011;25203;50.754;6.978;2024-01-15T03:12:21;36.65;;;16.73;;
39524;SDS011;25203;50.754;6.978;2024-01-15T03:14:21;32.33;;;15.90;;
39524;SDS011;25203;50.754;6.978;2024-01-15T03:16:24;34.03;;;15.93;;
39524;SDS011;25203;50.754;6.978;2024-01-15T03:18:25;29.88;;;16.00;;
39524;SDS011;25203;50.754;6.978;2024-01-15T03:20:25;30.63;;;14.98;;
39524;SDS011;25203;50.754;6.978;2024-01-15T03:22:26;32.33;;;15.23;;
39524;SDS011;25203;50.754;6.978;2024-01-15T03:24:26;29.75;;;14.30;;
39524;SDS011;25203;50.754;6.978;2024-01-15T03:26:27;26.27;;;14.60;;
39524;SDS011;25203;50.754;6.978;2024-01-15T03:28:27;25.35;;;14.73;;
39524;SDS011;25203;50.754;6.978;2024-01-15T03:30:30;33.00;;;15.38;;
39524;SDS011;25203;50.754;6.978;2024-01-15T03:32:30;30.60;;;15.98;;
39524;SDS011;25203;50.754;6.978;2024-01-15T03:34:31;30.35;;;15.43;;
39524;SDS011;25203;50.754;6.978;2024-01-15T03:36:32;32.92;;;16.50;;
39524;SDS011;25203;50.754;6.978;2024-01-15T03:38:32;34.88;;;16.48;;
39524;SDS011;25203;50.754;6.978;2024-01-15T03:40:33;31.42;;;16.92;;
39524;SDS011;25203;50.754;6.978;2024-01-15T03:42:33;32.15;;;15.63;;
39524;SDS011;25203;50.754;6.978;2024-01-15T03:44:34;30.52;;;16.73;;
39524;SDS011;25203;50.754;6.978;2024-01-15T03:46:35;32.92;;;18.85;;
39524;SDS011;25203;50.754;6.978;2024-01-15T03:48:35;32.78;;;15.60;;
39524;SDS011;25203;50.754;6.978;2024-01-15T03:50:36;37.50;;;18.35;;
39524;SDS011;25203;50.754;6.978;2024-01-15T03:52:37;29.27;;;15.77;;
39524;SDS011;25203;50.754;6.978;2024-01-15T03:54:37;30.33;;;15.93;;
39524;SDS011;25203;50.754;6.978;2024-01-15T03:56:38;32.22;;;17.38;;
39524;SDS011;25203;50.754;6.978;2024-01-15T03:58:39;34.20;;;16.35;;
39524;SDS011;25203;50.754;6.978;2024-01-15T04:00:40;34.80;;;16.15;;
39524;SDS011;25203;50.754;6.978;2024-01-15T04:02:40;30.85;;;17.23;;
39524;SDS011;25203;50.754;6.978;2024-01-15T04:04:41;37.75;;;16.70;;
39524;SDS011;25203;50.754;6.978;2024-01-15T04:06:43;31.00;;;17.17;;
39524;SDS011;25203;50.754;6.978;2024-01-15T04:08:44;32.25;;;15.52;;
39524;SDS011;25203;50.754;6.978;2024-01-15T04:10:45;35.13;;;17.38;;
39524;SDS011;25203;50.754;6.978;2024-01-15T04:12:45;35.10;;;16.95;;
39524;SDS011;25203;50.754;6.978;2024-01-15T04:14:46;31.90;;;15.93;;
39524;SDS011;25203;50.754;6.978;2024-01-15T04:16:46;28.95;;;15.95;;
39524;SDS011;25203;50.754;6.978;2024-01-15T04:18:47;31.45;;;14.82;;
39524;SDS011;25203;50.754;6.978;2024-01-15T04:20:48;33.10;;;14.57;;
39524;SDS011;25203;50.754;6.978;2024-01-15T04:22:48;32.72;;;14.48;;
39524;SDS011;25203;50.754;6.978;2024-01-15T04:24:49;26.17;;;14.20;;
39524;SDS011;25203;50.754;6.978;2024-01-15T04:26:49;30.35;;;13.38;;
39524;SDS011;25203;50.754;6.978;2024-01-15T04:28:50;28.15;;;14.13;;
39524;SDS011;25203;50.754;6.978;2024-01-15T04:30:51;31.45;;;14.55;;
39524;SDS011;25203;50.754;6.978;2024-01-15T04:32:51;24.58;;;14.05;;
39524;SDS011;25203;50.754;6.978;2024-01-15T04:34:52;24.98;;;14.02;;
39524;SDS011;25203;50.754;6.978;2024-01-15T04:36:52;22.77;;;12.77;;
39524;SDS011;25203;50.754;6.978;2024-01-15T04:38:53;28.75;;;13.98;;
39524;SDS011;25203;50.754;6.978;2024-01-15T04:40:53;23.63;;;12.90;;
39524;SDS011;25203;50.754;6.978;2024-01-15T04:42:54;28.13;;;14.05;;
39524;SDS011;25203;50.754;6.978;2024-01-15T04:44:55;31.98;;;14.35;;
39524;SDS011;25203;50.754;6.978;2024-01-15T04:46:55;25.58;;;12.80;;
39524;SDS011;25203;50.754;6.978;2024-01-15T04:48:56;21.75;;;12.00;;
39524;SDS011;25203;50.754;6.978;2024-01-15T04:50:56;19.90;;;11.13;;
39524;SDS011;25203;50.754;6.978;2024-01-15T04:52:57;23.52;;;11.50;;
39524;SDS011;25203;50.754;6.978;2024-01-15T04:54:57;24.88;;;13.52;;
39524;SDS011;25203;50.754;6.978;2024-01-15T04:56:58;23.20;;;12.07;;
39524;SDS011;25203;50.754;6.978;2024-01-15T04:58:59;19.05;;;10.98;;
39524;SDS011;25203;50.754;6.978;2024-01-15T05:00:59;21.30;;;11.82;;
39524;SDS011;25203;50.754;6.978;2024-01-15T05:03:00;23.15;;;12.23;;
39524;SDS011;25203;50.754;6.978;2024-01-15T05:05:00;22.20;;;12.05;;
39524;SDS011;25203;50.754;6.978;2024-01-15T05:07:01;27.00;;;12.80;;
39524;SDS011;25203;50.754;6.978;2024-01-15T05:09:02;20.67;;;11.63;;
39524;SDS011;25203;50.754;6.978;2024-01-15T05:11:04;23.95;;;11.95;;
39524;SDS011;25203;50.754;6.978;2024-01-15T05:13:04;26.33;;;13.07;;
39524;SDS011;25203;50.754;6.978;2024-01-15T05:15:05;25.67;;;12.57;;
39524;SDS011;25203;50.754;6.978;2024-01-15T05:17:06;27.98;;;13.70;;
39524;SDS011;25203;50.754;6.978;2024-01-15T05:19:07;24.10;;;13.45;;
39524;SDS011;25203;50.754;6.978;2024-01-15T05:21:08;25.42;;;13.52;;
39524;SDS011;25203;50.754;6.978;2024-01-15T05:23:09;27.83;;;13.75;;
39524;SDS011;25203;50.754;6.978;2024-01-15T05:25:09;27.90;;;13.30;;
39524;SDS011;25203;50.754;6.978;2024-01-15T05:27:10;24.08;;;13.40;;
39524;SDS011;25203;50.754;6.978;2024-01-15T05:29:11;29.30;;;14.73;;
39524;SDS011;25203;50.754;6.978;2024-01-15T05:31:11;29.83;;;14.82;;
39524;SDS011;25203;50.754;6.978;2024-01-15T05:33:12;28.10;;;14.57;;
39524;SDS011;25203;50.754;6.978;2024-01-15T05:35:13;31.65;;;15.27;;
39524;SDS011;25203;50.754;6.978;2024-01-15T05:37:13;25.30;;;14.00;;
39524;SDS011;25203;50.754;6.978;2024-01-15T05:39:14;34.47;;;14.90;;
39524;SDS011;25203;50.754;6.978;2024-01-15T05:41:14;32.95;;;16.05;;
39524;SDS011;25203;50.754;6.978;2024-01-15T05:43:15;29.38;;;14.60;;
39524;SDS011;25203;50.754;6.978;2024-01-15T05:45:16;32.85;;;14.90;;
39524;SDS011;25203;50.754;6.978;2024-01-15T05:47:16;31.90;;;15.27;;
39524;SDS011;25203;50.754;6.978;2024-01-15T05:49:17;27.63;;;15.05;;
39524;SDS011;25203;50.754;6.978;2024-01-15T05:51:18;30.63;;;14.90;;
39524;SDS011;25203;50.754;6.978;2024-01-15T05:53:18;31.35;;;14.85;;
39524;SDS011;25203;50.754;6.978;2024-01-15T05:55:19;26.77;;;14.55;;
39524;SDS011;25203;50.754;6.978;2024-01-15T05:57:20;23.23;;;13.15;;
39524;SDS011;25203;50.754;6.978;2024-01-15T05:59:20;28.10;;;13.13;;
39524;SDS011;25203;50.754;6.978;2024-01-15T06:01:21;29.88;;;14.75;;
39524;SDS011;25203;50.754;6.978;2024-01-15T06:03:21;27.50;;;13.30;;
39524;SDS011;25203;50.754;6.978;2024-01-15T06:05:22;26.65;;;13.55;;
39524;SDS011;25203;50.754;6.978;2024-01-15T06:07:22;26.42;;;13.45;;
39524;SDS011;25203;50.754;6.978;2024-01-15T06:09:23;28.83;;;15.40;;
39524;SDS011;25203;50.754;6.978;2024-01-15T06:11:29;33.08;;;15.68;;
39524;SDS011;25203;50.754;6.978;2024-01-15T06:13:30;30.73;;;14.43;;
39524;SDS011;25203;50.754;6.978;2024-01-15T06:15:31;35.63;;;14.63;;
39524;SDS011;25203;50.754;6.978;2024-01-15T06:17:31;28.92;;;13.00;;
39524;SDS011;25203;50.754;6.978;2024-01-15T06:19:32;30.08;;;15.85;;
39524;SDS011;25203;50.754;6.978;2024-01-15T06:21:32;31.67;;;15.88;;
39524;SDS011;25203;50.754;6.978;2024-01-15T06:23:33;29.48;;;15.82;;
39524;SDS011;25203;50.754;6.978;2024-01-15T06:25:33;31.77;;;15.48;;
39524;SDS011;25203;50.754;6.978;2024-01-15T06:27:34;28.30;;;14.70;;
39524;SDS011;25203;50.754;6.978;2024-01-15T06:29:37;31.55;;;15.68;;
39524;SDS011;25203;50.754;6.978;2024-01-15T06:31:38;28.05;;;16.05;;
39524;SDS011;25203;50.754;6.978;2024-01-15T06:33:38;29.00;;;16.35;;
39524;SDS011;25203;50.754;6.978;2024-01-15T06:35:39;27.33;;;15.40;;
39524;SDS011;25203;50.754;6.978;2024-01-15T06:37:40;29.58;;;16.52;;
39524;SDS011;25203;50.754;6.978;2024-01-15T06:39:40;31.90;;;14.95;;
39524;SDS011;25203;50.754;6.978;2024-01-15T06:41:41;29.58;;;16.33;;
39524;SDS011;25203;50.754;6.978;2024-01-15T06:43:43;33.58;;;15.55;;
39524;SDS011;25203;50.754;6.978;2024-01-15T06:45:44;32.83;;;15.77;;
39524;SDS011;25203;50.754;6.978;2024-01-15T06:47:44;32.72;;;16.08;;
39524;SDS011;25203;50.754;6.978;2024-01-15T06:49:45;34.10;;;16.63;;
39524;SDS011;25203;50.754;6.978;2024-01-15T06:51:45;29.60;;;15.75;;
39524;SDS011;25203;50.754;6.978;2024-01-15T06:53:46;29.83;;;17.30;;
39524;SDS011;25203;50.754;6.978;2024-01-15T06:55:47;30.08;;;15.90;;
39524;SDS011;25203;50.754;6.978;2024-01-15T06:57:49;39.47;;;17.52;;
39524;SDS011;25203;50.754;6.978;2024-01-15T06:59:49;33.60;;;18.02;;
39524;SDS011;25203;50.754;6.978;2024-01-15T07:01:50;35.78;;;18.02;;
39524;SDS011;25203;50.754;6.978;2024-01-15T07:03:51;36.72;;;17.10;;
39524;SDS011;25203;50.754;6.978;2024-01-15T07:05:51;37.67;;;17.60;;
39524;SDS011;25203;50.754;6.978;2024-01-15T07:07:52;29.10;;;16.00;;
39524;SDS011;25203;50.754;6.978;2024-01-15T07:09:53;38.95;;;19.08;;
39524;SDS011;25203;50.754;6.978;2024-01-15T07:11:53;39.80;;;18.42;;
39524;SDS011;25203;50.754;6.978;2024-01-15T07:13:54;31.40;;;17.17;;
39524;SDS011;25203;50.754;6.978;2024-01-15T07:15:54;37.60;;;18.55;;
39524;SDS011;25203;50.754;6.978;2024-01-15T07:17:55;32.20;;;16.25;;
39524;SDS011;25203;50.754;6.978;2024-01-15T07:19:55;39.25;;;17.48;;
39524;SDS011;25203;50.754;6.978;2024-01-15T07:21:56;29.65;;;16.92;;
39524;SDS011;25203;50.754;6.978;2024-01-15T07:23:57;27.90;;;15.20;;
39524;SDS011;25203;50.754;6.978;2024-01-15T07:25:57;33.67;;;16.13;;
39524;SDS011;25203;50.754;6.978;2024-01-15T07:27:58;29.75;;;14.88;;
39524;SDS011;25203;50.754;6.978;2024-01-15T07:29:58;34.50;;;15.15;;
39524;SDS011;25203;50.754;6.978;2024-01-15T07:31:59;30.52;;;15.27;;
39524;SDS011;25203;50.754;6.978;2024-01-15T07:34:00;31.67;;;15.93;;
39524;SDS011;25203;50.754;6.978;2024-01-15T07:36:01;31.35;;;16.55;;
39524;SDS011;25203;50.754;6.978;2024-01-15T07:38:02;34.05;;;15.70;;
39524;SDS011;25203;50.754;6.978;2024-01-15T07:40:03;31.98;;;15.20;;
39524;SDS011;25203;50.754;6.978;2024-01-15T07:42:05;28.92;;;14.23;;
39524;SDS011;25203;50.754;6.978;2024-01-15T07:44:07;28.30;;;13.50;;
39524;SDS011;25203;50.754;6.978;2024-01-15T07:46:07;32.47;;;14.88;;
39524;SDS011;25203;50.754;6.978;2024-01-15T07:48:08;36.10;;;15.45;;
39524;SDS011;25203;50.754;6.978;2024-01-15T07:50:10;27.00;;;14.88;;
39524;SDS011;25203;50.754;6.978;2024-01-15T07:52:11;33.38;;;14.27;;
39524;SDS011;25203;50.754;6.978;2024-01-15T07:54:13;27.75;;;14.40;;
39524;SDS011;25203;50.754;6.978;2024-01-15T07:56:13;28.27;;;13.43;;
39524;SDS011;25203;50.754;6.978;2024-01-15T07:58:14;27.38;;;12.82;;
39524;SDS011;25203;50.754;6.978;2024-01-15T08:00:15;29.10;;;14.32;;
39524;SDS011;25203;50.754;6.978;2024-01-15T08:02:15;24.70;;;12.20;;
39524;SDS011;25203;50.754;6.978;2024-01-15T08:04:16;27.63;;;12.35;;
39524;SDS011;25203;50.754;6.978;2024-01-15T08:06:17;20.65;;;11.70;;
39524;SDS011;25203;50.754;6.978;2024-01-15T08:08:17;31.02;;;12.18;;
39524;SDS011;25203;50.754;6.978;2024-01-15T08:10:18;23.60;;;11.93;;
39524;SDS011;25203;50.754;6.978;2024-01-15T08:12:19;27.75;;;12.15;;
39524;SDS011;25203;50.754;6.978;2024-01-15T08:14:19;25.02;;;11.60;;
39524;SDS011;25203;50.754;6.978;2024-01-15T08:16:20;21.48;;;11.02;;
39524;SDS011;25203;50.754;6.978;2024-01-15T08:18:21;21.17;;;12.02;;
39524;SDS011;25203;50.754;6.978;2024-01-15T08:20:21;25.02;;;10.52;;
39524;SDS011;25203;50.754;6.978;2024-01-15T08:22:25;23.88;;;11.40;;
39524;SDS011;25203;50.754;6.978;2024-01-15T08:24:26;20.65;;;11.57;;
39524;SDS011;25203;50.754;6.978;2024-01-15T08:26:26;29.48;;;11.50;;
39524;SDS011;25203;50.754;6.978;2024-01-15T08:28:27;25.83;;;12.50;;
39524;SDS011;25203;50.754;6.978;2024-01-15T08:30:27;22.50;;;11.60;;
39524;SDS011;25203;50.754;6.978;2024-01-15T08:32:28;22.98;;;11.60;;
39524;SDS011;25203;50.754;6.978;2024-01-15T08:34:29;21.77;;;10.90;;
39524;SDS011;25203;50.754;6.978;2024-01-15T08:36:31;24.73;;;11.45;;
39524;SDS011;25203;50.754;6.978;2024-01-15T08:38:32;27.67;;;11.48;;
39524;SDS011;25203;50.754;6.978;2024-01-15T08:40:33;24.90;;;11.48;;
39524;SDS011;25203;50.754;6.978;2024-01-15T08:42:33;20.83;;;12.10;;
39524;SDS011;25203;50.754;6.978;2024-01-15T08:44:34;28.58;;;11.50;;
39524;SDS011;25203;50.754;6.978;2024-01-15T08:46:35;22.67;;;11.48;;
39524;SDS011;25203;50.754;6.978;2024-01-15T08:48:35;22.73;;;11.07;;
39524;SDS011;25203;50.754;6.978;2024-01-15T08:50:36;20.77;;;11.32;;
39524;SDS011;25203;50.754;6.978;2024-01-15T08:52:37;19.85;;;11.35;;
39524;SDS011;25203;50.754;6.978;2024-01-15T08:54:37;22.50;;;11.40;;
39524;SDS011;25203;50.754;6.978;2024-01-15T08:56:38;23.13;;;12.02;;
39524;SDS011;25203;50.754;6.978;2024-01-15T08:58:40;28.02;;;11.10;;
39524;SDS011;25203;50.754;6.978;2024-01-15T09:00:40;25.27;;;10.55;;
39524;SDS011;25203;50.754;6.978;2024-01-15T09:02:41;21.17;;;10.60;;
39524;SDS011;25203;50.754;6.978;2024-01-15T09:04:42;20.38;;;10.93;;
39524;SDS011;25203;50.754;6.978;2024-01-15T09:06:45;20.83;;;9.85;;
39524;SDS011;25203;50.754;6.978;2024-01-15T09:08:49;19.85;;;10.43;;
39524;SDS011;25203;50.754;6.978;2024-01-15T09:10:50;16.55;;;8.98;;
39524;SDS011;25203;50.754;6.978;2024-01-15T09:12:50;19.38;;;9.45;;
39524;SDS011;25203;50.754;6.978;2024-01-15T09:14:51;19.83;;;10.15;;
39524;SDS011;25203;50.754;6.978;2024-01-15T09:16:53;18.08;;;10.38;;
39524;SDS011;25203;50.754;6.978;2024-01-15T09:18:54;19.65;;;9.27;;
39524;SDS011;25203;50.754;6.978;2024-01-15T09:20:57;21.27;;;10.45;;
39524;SDS011;25203;50.754;6.978;2024-01-15T09:22:58;17.90;;;8.18;;
39524;SDS011;25203;50.754;6.978;2024-01-15T09:24:58;18.65;;;8.60;;
39524;SDS011;25203;50.754;6.978;2024-01-15T09:26:59;16.70;;;9.05;;
39524;SDS011;25203;50.754;6.978;2024-01-15T09:29:00;17.77;;;8.02;;
39524;SDS011;25203;50.754;6.978;2024-01-15T09:31:02;13.10;;;7.50;;
39524;SDS011;25203;50.754;6.978;2024-01-15T09:33:03;12.93;;;7.45;;
39524;SDS011;25203;50.754;6.978;2024-01-15T09:35:04;15.35;;;8.38;;
39524;SDS011;25203;50.754;6.978;2024-01-15T09:37:06;11.38;;;7.38;;
39524;SDS011;25203;50.754;6.978;2024-01-15T09:39:06;16.92;;;7.78;;
39524;SDS011;25203;50.754;6.978;2024-01-15T09:41:08;14.38;;;7.68;;
39524;SDS011;25203;50.754;6.978;2024-01-15T09:43:09;12.35;;;8.23;;
39524;SDS011;25203;50.754;6.978;2024-01-15T09:45:10;15.65;;;8.27;;
39524;SDS011;25203;50.754;6.978;2024-01-15T09:47:12;14.88;;;8.68;;
39524;SDS011;25203;50.754;6.978;2024-01-15T09:49:12;20.88;;;9.98;;
39524;SDS011;25203;50.754;6.978;2024-01-15T09:51:13;16.67;;;9.32;;
39524;SDS011;25203;50.754;6.978;2024-01-15T09:53:14;17.10;;;9.35;;
39524;SDS011;25203;50.754;6.978;2024-01-15T09:55:17;17.00;;;8.98;;
39524;SDS011;25203;50.754;6.978;2024-01-15T09:57:17;15.02;;;9.27;;
39524;SDS011;25203;50.754;6.978;2024-01-15T09:59:18;21.67;;;9.35;;
39524;SDS011;25203;50.754;6.978;2024-01-15T10:01:22;19.38;;;9.82;;
39524;SDS011;25203;50.754;6.978;2024-01-15T10:03:23;16.33;;;9.13;;
39524;SDS011;25203;50.754;6.978;2024-01-15T10:05:24;16.17;;;9.35;;
39524;SDS011;25203;50.754;6.978;2024-01-15T10:07:25;14.18;;;9.00;;
39524;SDS011;25203;50.754;6.978;2024-01-15T10:09:26;16.33;;;9.18;;
39524;SDS011;25203;50.754;6.978;2024-01-15T10:11:26;17.38;;;9.68;;
39524;SDS011;25203;50.754;6.978;2024-01-15T10:13:28;15.52;;;8.68;;
39524;SDS011;25203;50.754;6.978;2024-01-15T10:15:33;13.98;;;9.32;;
39524;SDS011;25203;50.754;6.978;2024-01-15T10:17:38;14.68;;;9.70;;
39524;SDS011;25203;50.754;6.978;2024-01-15T10:19:39;22.00;;;9.52;;
39524;SDS011;25203;50.754;6.978;2024-01-15T10:21:41;17.85;;;10.65;;
39524;SDS011;25203;50.754;6.978;2024-01-15T10:23:42;20.20;;;11.85;;
39524;SDS011;25203;50.754;6.978;2024-01-15T10:25:42;15.48;;;10.35;;
39524;SDS011;25203;50.754;6.978;2024-01-15T10:27:43;16.92;;;10.35;;
39524;SDS011;25203;50.754;6.978;2024-01-15T10:29:44;19.85;;;10.73;;
39524;SDS011;25203;50.754;6.978;2024-01-15T10:31:46;19.80;;;10.60;;
39524;SDS011;25203;50.754;6.978;2024-01-15T10:33:49;18.00;;;10.95;;
39524;SDS011;25203;50.754;6.978;2024-01-15T10:35:50;16.63;;;11.80;;
39524;SDS011;25203;50.754;6.978;2024-01-15T10:37:53;17.40;;;10.88;;
39524;SDS011;25203;50.754;6.978;2024-01-15T10:39:54;21.33;;;12.30;;
39524;SDS011;25203;50.754;6.978;2024-01-15T10:41:55;18.23;;;11.95;;
39524;SDS011;25203;50.754;6.978;2024-01-15T10:43:55;17.02;;;11.18;;
39524;SDS011;25203;50.754;6.978;2024-01-15T10:45:56;22.95;;;11.68;;
39524;SDS011;25203;50.754;6.978;2024-01-15T10:47:57;13.95;;;9.93;;
39524;SDS011;25203;50.754;6.978;2024-01-15T10:49:58;17.48;;;10.32;;
39524;SDS011;25203;50.754;6.978;2024-01-15T10:52:01;16.27;;;10.15;;
39524;SDS011;25203;50.754;6.978;2024-01-15T10:54:02;16.50;;;9.75;;
39524;SDS011;25203;50.754;6.978;2024-01-15T10:56:04;15.23;;;10.32;;
39524;SDS011;25203;50.754;6.978;2024-01-15T10:58:05;14.27;;;9.32;;
39524;SDS011;25203;50.754;6.978;2024-01-15T11:00:07;15.57;;;10.30;;
39524;SDS011;25203;50.754;6.978;2024-01-15T11:02:14;13.85;;;9.75;;
39524;SDS011;25203;50.754;6.978;2024-01-15T11:04:15;13.27;;;9.27;;
39524;SDS011;25203;50.754;6.978;2024-01-15T11:06:17;15.48;;;8.68;;
39524;SDS011;25203;50.754;6.978;2024-01-15T11:08:21;19.30;;;9.88;;
39524;SDS011;25203;50.754;6.978;2024-01-15T11:10:40;15.05;;;9.40;;
39524;SDS011;25203;50.754;6.978;2024-01-15T11:12:42;20.60;;;10.25;;
39524;SDS011;25203;50.754;6.978;2024-01-15T11:14:47;15.55;;;10.25;;
39524;SDS011;25203;50.754;6.978;2024-01-15T11:16:55;16.75;;;10.18;;
39524;SDS011;25203;50.754;6.978;2024-01-15T11:19:01;17.00;;;10.10;;
39524;SDS011;25203;50.754;6.978;2024-01-15T11:23:36;19.95;;;11.80;;
39524;SDS011;25203;50.754;6.978;2024-01-15T11:25:49;21.00;;;12.98;;
39524;SDS011;25203;50.754;6.978;2024-01-15T11:27:50;20.95;;;12.95;;
39524;SDS011;25203;50.754;6.978;2024-01-15T11:30:02;23.85;;;13.88;;
39524;SDS011;25203;50.754;6.978;2024-01-15T11:32:09;26.17;;;13.48;;
39524;SDS011;25203;50.754;6.978;2024-01-15T11:34:10;30.85;;;14.60;;
39524;SDS011;25203;50.754;6.978;2024-01-15T11:36:12;21.42;;;13.07;;
39524;SDS011;25203;50.754;6.978;2024-01-15T11:38:15;25.27;;;13.68;;
39524;SDS011;25203;50.754;6.978;2024-01-15T11:42:35;22.98;;;13.70;;
39524;SDS011;25203;50.754;6.978;2024-01-15T11:44:39;27.85;;;13.75;;
39524;SDS011;25203;50.754;6.978;2024-01-15T11:46:40;26.70;;;12.88;;
39524;SDS011;25203;50.754;6.978;2024-01-15T11:48:57;28.33;;;14.00;;
39524;SDS011;25203;50.754;6.978;2024-01-15T11:51:04;23.42;;;13.88;;
39524;SDS011;25203;50.754;6.978;2024-01-15T11:53:06;36.47;;;14.73;;
39524;SDS011;25203;50.754;6.978;2024-01-15T11:59:43;22.90;;;12.90;;